Time;durP1;ratioP1;P1;durP2;ratioP2;P2;SDS_P1;SDS_P2;PMS_P1;PMS_P2;Temp;Humidity;BMP_temperature;BMP_pressure;BME280_temperature;BME280_humidity;BME280_pressure;Samples;Min_cycle;Max_cycle;Signal;HPM_P1;HPM_P2
2022/11/12 00:00:20;;;;;;;2.13;2.03;;;;;;;;;;4947695;28;20461;-53
2022/11/12 00:02:46;;;;;;;0.70;0.70;;;;;;;;;;4961901;28;20426;-53
2022/11/12 00:05:12;;;;;;;0.73;0.73;;;;;;;;;;4948350;28;20586;-53
2022/11/12 00:07:38;;;;;;;0.80;0.80;;;;;;;;;;4943825;28;20459;-54
2022/11/12 00:10:04;;;;;;;0.80;0.80;;;;;;;;;;4950197;28;20439;-52
2022/11/12 00:12:30;;;;;;;0.90;0.90;;;;;;;;;;4948075;28;21674;-53
2022/11/12 00:14:56;;;;;;;0.70;0.70;;;;;;;;;;4953555;28;20436;-53
2022/11/12 00:17:22;;;;;;;0.70;0.70;;;;;;;;;;4954946;28;20414;-54
2022/11/12 00:19:48;;;;;;;0.70;0.70;;;;;;;;;;4961997;28;20499;-53
2022/11/12 00:22:14;;;;;;;0.80;0.80;;;;;;;;;;4952159;28;20426;-53
2022/11/12 00:24:40;;;;;;;0.87;0.87;;;;;;;;;;4951277;28;20445;-53
2022/11/12 00:27:06;;;;;;;0.77;0.77;;;;;;;;;;4951115;28;20414;-52
2022/11/12 00:29:32;;;;;;;0.80;0.80;;;;;;;;;;4951210;28;20783;-53
2022/11/12 00:31:58;;;;;;;0.70;0.70;;;;;;;;;;4952297;28;20953;-53
2022/11/12 00:34:25;;;;;;;0.70;0.70;;;;;;;;;;4951707;28;20476;-53
2022/11/12 00:36:51;;;;;;;0.80;0.80;;;;;;;;;;4934585;28;20418;-52
2022/11/12 00:39:17;;;;;;;0.80;0.80;;;;;;;;;;4955312;28;20434;-52
2022/11/12 00:41:43;;;;;;;0.70;0.70;;;;;;;;;;4955700;28;20427;-53
2022/11/12 00:44:08;;;;;;;0.70;0.70;;;;;;;;;;4954906;28;20423;-53
2022/11/12 00:46:34;;;;;;;0.80;0.80;;;;;;;;;;4946735;28;20784;-53
2022/11/12 00:49:00;;;;;;;0.80;0.80;;;;;;;;;;4955196;28;20431;-53
2022/11/12 00:51:26;;;;;;;0.80;0.80;;;;;;;;;;4946800;28;20473;-53
2022/11/12 00:53:52;;;;;;;0.87;0.87;;;;;;;;;;4957818;28;20436;-53
2022/11/12 00:56:18;;;;;;;0.90;0.90;;;;;;;;;;4934245;28;20425;-53
2022/11/12 00:58:44;;;;;;;0.90;0.90;;;;;;;;;;4952903;28;20425;-54
2022/11/12 01:01:11;;;;;;;0.70;0.70;;;;;;;;;;4938506;28;20724;-53
2022/11/12 01:03:37;;;;;;;0.70;0.70;;;;;;;;;;4944641;28;20427;-53
2022/11/12 01:06:07;;;;;;;0.70;0.70;;;;;;;;;;4946074;28;20453;-53
2022/11/12 01:08:33;;;;;;;0.80;0.80;;;;;;;;;;4935776;28;20486;-53
2022/11/12 01:11:25;;;;;;;1.10;1.10;;;;;;;;;;4944212;28;20501;-53
2022/11/12 01:13:57;;;;;;;0.70;0.70;;;;;;;;;;4925692;28;20438;-53
2022/11/12 01:16:24;;;;;;;0.98;0.98;;;;;;;;;;4954191;28;20507;-53
2022/11/12 01:18:54;;;;;;;1.00;1.00;;;;;;;;;;4941839;28;20428;-53
2022/11/12 01:21:20;;;;;;;0.90;0.90;;;;;;;;;;4951204;28;20424;-53
2022/11/12 01:23:46;;;;;;;0.90;0.90;;;;;;;;;;4925473;28;20418;-53
2022/11/12 01:26:12;;;;;;;0.93;0.93;;;;;;;;;;4950961;28;20946;-53
2022/11/12 01:28:38;;;;;;;0.85;0.85;;;;;;;;;;4957765;28;20432;-53
2022/11/12 01:31:11;;;;;;;1.10;1.10;;;;;;;;;;4943806;28;20417;-53
2022/11/12 01:33:37;;;;;;;0.90;0.90;;;;;;;;;;4913632;28;20524;-53
2022/11/12 01:36:03;;;;;;;1.00;1.00;;;;;;;;;;4919792;28;20430;-53
2022/11/12 01:38:29;;;;;;;1.00;1.00;;;;;;;;;;4946242;28;20419;-53
2022/11/12 01:40:55;;;;;;;0.93;0.93;;;;;;;;;;4916232;28;21515;-53
2022/11/12 01:43:21;;;;;;;0.93;0.93;;;;;;;;;;4953037;28;20888;-53
2022/11/12 01:45:47;;;;;;;0.90;0.90;;;;;;;;;;4935836;28;20862;-52
2022/11/12 01:48:33;;;;;;;0.90;0.90;;;;;;;;;;4933298;28;20463;-53
2022/11/12 01:50:59;;;;;;;0.85;0.85;;;;;;;;;;4952667;28;20425;-53
2022/11/12 01:53:26;;;;;;;1.00;1.00;;;;;;;;;;4939180;28;20441;-53
2022/11/12 01:55:51;;;;;;;0.90;0.90;;;;;;;;;;4926489;28;20805;-53
2022/11/12 01:58:18;;;;;;;1.20;1.20;;;;;;;;;;4951337;28;20419;-53
2022/11/12 02:00:44;;;;;;;1.23;1.23;;;;;;;;;;4942577;28;21124;-53
2022/11/12 02:03:12;;;;;;;1.25;1.25;;;;;;;;;;4948273;28;20433;-53
2022/11/12 02:05:38;;;;;;;1.30;1.30;;;;;;;;;;4932060;28;20450;-53
2022/11/12 02:08:04;;;;;;;0.90;0.90;;;;;;;;;;4950564;28;20834;-53
2022/11/12 02:10:30;;;;;;;1.50;1.50;;;;;;;;;;4942819;28;20991;-53
2022/11/12 02:15:41;;;;;;;0.60;0.60;;;;;;;;;;4929176;28;20814;-53
2022/11/12 02:18:06;;;;;;;0.77;0.77;;;;;;;;;;4956620;28;20439;-53
2022/11/12 02:20:33;;;;;;;0.70;0.70;;;;;;;;;;4931700;28;20955;-53
2022/11/12 02:22:59;;;;;;;0.70;0.70;;;;;;;;;;4953678;28;20433;-53
2022/11/12 02:25:25;;;;;;;0.80;0.80;;;;;;;;;;4951506;28;20425;-53
2022/11/12 02:27:52;;;;;;;0.70;0.70;;;;;;;;;;4948704;28;20433;-53
2022/11/12 02:30:19;;;;;;;0.70;0.70;;;;;;;;;;4943500;28;21012;-53
2022/11/12 02:32:45;;;;;;;0.70;0.70;;;;;;;;;;4947075;28;21132;-53
2022/11/12 02:35:11;;;;;;;0.70;0.70;;;;;;;;;;4939871;28;20434;-53
2022/11/12 02:37:37;;;;;;;0.70;0.70;;;;;;;;;;4964714;28;20422;-53
2022/11/12 02:40:03;;;;;;;0.80;0.80;;;;;;;;;;4952346;28;21021;-53
2022/11/12 02:42:29;;;;;;;1.60;1.60;;;;;;;;;;4952604;28;20768;-53
2022/11/12 02:44:55;;;;;;;1.40;1.40;;;;;;;;;;4933180;28;20482;-53
2022/11/12 02:47:21;;;;;;;2.30;2.20;;;;;;;;;;4952097;28;20696;-53
2022/11/12 02:49:47;;;;;;;2.50;2.40;;;;;;;;;;4947424;28;20414;-53
2022/11/12 02:52:13;;;;;;;2.10;2.00;;;;;;;;;;4942911;28;20421;-53
2022/11/12 02:54:39;;;;;;;2.13;2.03;;;;;;;;;;4956012;28;20519;-53
2022/11/12 02:57:04;;;;;;;2.28;2.17;;;;;;;;;;4954091;28;20425;-53
2022/11/12 02:59:30;;;;;;;1.98;1.88;;;;;;;;;;4950567;28;20549;-53
2022/11/12 03:01:56;;;;;;;1.80;1.70;;;;;;;;;;4939106;28;21150;-54
2022/11/12 03:04:22;;;;;;;2.20;2.10;;;;;;;;;;4955706;28;20418;-53
2022/11/12 03:06:48;;;;;;;2.15;2.05;;;;;;;;;;4951713;28;20490;-54
2022/11/12 03:09:14;;;;;;;1.90;1.80;;;;;;;;;;4941317;28;20424;-54
2022/11/12 03:11:40;;;;;;;2.00;1.90;;;;;;;;;;4942139;28;21026;-53
2022/11/12 03:14:06;;;;;;;2.22;2.13;;;;;;;;;;4948770;28;20440;-53
2022/11/12 03:16:32;;;;;;;2.10;2.00;;;;;;;;;;4941861;28;20514;-53
2022/11/12 03:18:58;;;;;;;2.35;2.25;;;;;;;;;;4955316;28;20433;-53
2022/11/12 03:21:24;;;;;;;2.30;2.20;;;;;;;;;;4932872;28;20428;-54
2022/11/12 03:23:50;;;;;;;2.00;1.90;;;;;;;;;;4953400;28;20450;-53
2022/11/12 03:26:16;;;;;;;2.00;1.90;;;;;;;;;;4936618;28;20438;-54
2022/11/12 03:28:42;;;;;;;2.13;2.03;;;;;;;;;;4950725;28;20424;-53
2022/11/12 03:31:07;;;;;;;1.90;1.80;;;;;;;;;;4932674;28;21030;-53
2022/11/12 03:33:33;;;;;;;1.80;1.70;;;;;;;;;;4952977;28;20505;-58
2022/11/12 03:35:59;;;;;;;2.08;1.98;;;;;;;;;;4959194;28;20464;-54
2022/11/12 03:38:25;;;;;;;1.90;1.80;;;;;;;;;;4955606;28;20701;-52
2022/11/12 03:40:51;;;;;;;2.15;2.05;;;;;;;;;;4941776;28;20424;-53
2022/11/12 03:43:17;;;;;;;2.00;1.90;;;;;;;;;;4944190;28;20423;-53
2022/11/12 03:45:43;;;;;;;1.90;1.80;;;;;;;;;;4936367;28;20449;-53
2022/11/12 03:48:09;;;;;;;1.80;1.70;;;;;;;;;;4947564;28;20429;-53
2022/11/12 03:50:35;;;;;;;1.70;1.70;;;;;;;;;;4951309;28;20496;-53
2022/11/12 03:53:02;;;;;;;2.00;1.90;;;;;;;;;;4921597;28;20426;-53
2022/11/12 03:55:28;;;;;;;1.90;1.80;;;;;;;;;;4949003;28;20442;-53
2022/11/12 03:57:54;;;;;;;2.17;2.08;;;;;;;;;;4947835;28;21257;-53
2022/11/12 04:00:20;;;;;;;2.50;2.40;;;;;;;;;;4937820;28;20523;-53
2022/11/12 04:02:46;;;;;;;2.00;1.90;;;;;;;;;;4937175;28;20526;-53
2022/11/12 04:10:45;;;;;;;0.90;0.90;;;;;;;;;;4931815;28;20443;-53
2022/11/12 04:13:26;;;;;;;0.80;0.80;;;;;;;;;;4938199;28;20432;-53
2022/11/12 04:26:21;;;;;;;1.00;1.00;;;;;;;;;;4921636;28;20433;-53
2022/11/12 04:26:57;;;;;;;0.90;0.90;;;;;;;;;;4939309;28;20427;-54
2022/11/12 04:32:08;;;;;;;1.15;1.15;;;;;;;;;;4940717;28;21012;-53
2022/11/12 04:34:34;;;;;;;0.90;0.90;;;;;;;;;;4957437;28;20426;-53
2022/11/12 04:37:01;;;;;;;0.83;0.83;;;;;;;;;;4946366;28;20428;-53
2022/11/12 04:39:27;;;;;;;0.90;0.90;;;;;;;;;;4941401;28;20410;-53
2022/11/12 04:47:22;;;;;;;0.70;0.70;;;;;;;;;;4947736;28;20444;-53
2022/11/12 04:49:48;;;;;;;0.60;0.60;;;;;;;;;;4942583;28;20536;-53
2022/11/12 04:52:14;;;;;;;0.70;0.70;;;;;;;;;;4940235;28;20509;-53
2022/11/12 04:54:40;;;;;;;0.73;0.73;;;;;;;;;;4934192;28;20437;-53
2022/11/12 04:57:06;;;;;;;0.70;0.70;;;;;;;;;;4952133;28;21021;-54
2022/11/12 04:59:32;;;;;;;0.77;0.77;;;;;;;;;;4940744;28;20425;-53
2022/11/12 05:01:58;;;;;;;0.70;0.70;;;;;;;;;;4940623;28;20821;-52
2022/11/12 05:04:28;;;;;;;0.80;0.80;;;;;;;;;;4942314;28;20417;-53
2022/11/12 05:06:57;;;;;;;0.70;0.70;;;;;;;;;;4927656;28;20418;-53
2022/11/12 05:09:23;;;;;;;0.80;0.80;;;;;;;;;;4939657;28;20444;-53
2022/11/12 05:11:49;;;;;;;0.90;0.90;;;;;;;;;;4947749;28;20597;-53
2022/11/12 05:14:15;;;;;;;0.80;0.80;;;;;;;;;;4959390;28;20528;-53
2022/11/12 05:16:41;;;;;;;0.80;0.80;;;;;;;;;;4951235;28;20431;-53
2022/11/12 05:19:07;;;;;;;0.85;0.85;;;;;;;;;;4944557;28;20431;-53
2022/11/12 05:24:18;;;;;;;0.70;0.70;;;;;;;;;;4936244;28;21025;-53
2022/11/12 05:26:44;;;;;;;0.77;0.77;;;;;;;;;;4940093;28;20452;-53
2022/11/12 05:29:10;;;;;;;0.60;0.60;;;;;;;;;;4950950;28;20660;-53
2022/11/12 05:31:36;;;;;;;0.80;0.80;;;;;;;;;;4929644;28;20503;-53
2022/11/12 05:34:02;;;;;;;1.55;1.55;;;;;;;;;;4936810;28;20509;-53
2022/11/12 05:36:28;;;;;;;1.90;1.80;;;;;;;;;;4928548;28;20480;-53
2022/11/12 05:38:54;;;;;;;2.00;1.90;;;;;;;;;;4968271;28;20439;-53
2022/11/12 05:41:20;;;;;;;1.80;1.70;;;;;;;;;;4956246;28;20902;-53
2022/11/12 05:43:46;;;;;;;1.90;1.80;;;;;;;;;;4947237;28;20420;-53
2022/11/12 05:46:11;;;;;;;1.67;1.67;;;;;;;;;;4957271;28;20441;-53
2022/11/12 05:48:37;;;;;;;1.80;1.70;;;;;;;;;;4965583;28;20422;-53
2022/11/12 05:51:03;;;;;;;1.60;1.60;;;;;;;;;;4955493;28;20426;-53
2022/11/12 05:53:29;;;;;;;1.30;1.30;;;;;;;;;;4959431;28;20529;-53
2022/11/12 05:56:01;;;;;;;1.20;1.20;;;;;;;;;;4965619;28;21020;-54
2022/11/12 05:58:27;;;;;;;1.50;1.50;;;;;;;;;;4957917;28;20477;-53
2022/11/12 06:00:52;;;;;;;1.45;1.45;;;;;;;;;;4951311;28;20428;-53
2022/11/12 06:03:18;;;;;;;1.60;1.60;;;;;;;;;;4957117;28;20414;-53
2022/11/12 06:05:44;;;;;;;1.58;1.58;;;;;;;;;;4956994;28;20428;-53
2022/11/12 06:08:10;;;;;;;1.80;1.70;;;;;;;;;;4950400;28;20420;-54
2022/11/12 06:10:36;;;;;;;1.73;1.70;;;;;;;;;;4935428;28;20416;-54
2022/11/12 06:13:02;;;;;;;2.08;1.98;;;;;;;;;;4947491;28;20451;-53
2022/11/12 06:15:28;;;;;;;2.20;2.10;;;;;;;;;;4945158;28;21313;-53
2022/11/12 06:17:54;;;;;;;1.88;1.77;;;;;;;;;;4951796;28;20538;-53
2022/11/12 06:20:20;;;;;;;2.10;2.00;;;;;;;;;;4966417;28;20793;-53
2022/11/12 06:22:46;;;;;;;1.98;1.88;;;;;;;;;;4961968;28;20550;-54
2022/11/12 06:25:12;;;;;;;2.30;2.20;;;;;;;;;;4947892;28;20426;-54
2022/11/12 06:27:38;;;;;;;2.17;2.08;;;;;;;;;;4959659;28;20575;-53
2022/11/12 06:30:05;;;;;;;2.20;2.10;;;;;;;;;;4934104;28;20488;-53
2022/11/12 06:32:31;;;;;;;2.33;2.23;;;;;;;;;;4963053;28;20935;-53
2022/11/12 06:34:57;;;;;;;2.20;2.10;;;;;;;;;;4945918;28;20477;-53
2022/11/12 06:37:23;;;;;;;1.10;1.10;;;;;;;;;;4968173;28;20767;-54
2022/11/12 06:39:49;;;;;;;1.80;1.70;;;;;;;;;;4967538;28;20944;-53
2022/11/12 06:42:15;;;;;;;1.40;1.40;;;;;;;;;;4950438;28;20899;-53
2022/11/12 06:44:41;;;;;;;1.40;1.40;;;;;;;;;;4950517;28;21342;-53
2022/11/12 06:47:06;;;;;;;1.70;1.70;;;;;;;;;;4918615;28;20430;-53
2022/11/12 06:49:32;;;;;;;1.90;1.80;;;;;;;;;;4954523;28;20525;-53
2022/11/12 06:51:58;;;;;;;1.50;1.50;;;;;;;;;;4951556;28;20420;-53
2022/11/12 06:54:25;;;;;;;1.67;1.67;;;;;;;;;;4928976;28;20954;-53
2022/11/12 06:56:51;;;;;;;1.33;1.33;;;;;;;;;;4955722;28;20410;-53
2022/11/12 06:59:17;;;;;;;1.50;1.50;;;;;;;;;;4963958;28;20443;-53
2022/11/12 07:01:43;;;;;;;1.60;1.60;;;;;;;;;;4971894;28;20439;-53
2022/11/12 07:04:09;;;;;;;1.50;1.50;;;;;;;;;;4963139;28;20944;-53
2022/11/12 07:06:35;;;;;;;1.70;1.70;;;;;;;;;;4966870;28;20789;-54
2022/11/12 07:09:01;;;;;;;1.50;1.50;;;;;;;;;;4966848;28;20416;-53
2022/11/12 07:11:27;;;;;;;1.30;1.30;;;;;;;;;;4967890;28;20477;-54
2022/11/12 07:13:53;;;;;;;1.30;1.30;;;;;;;;;;4964468;28;20429;-53
2022/11/12 07:16:19;;;;;;;1.20;1.20;;;;;;;;;;4963114;28;22572;-54
2022/11/12 07:18:45;;;;;;;1.40;1.40;;;;;;;;;;4960453;28;20689;-54
2022/11/12 07:21:12;;;;;;;1.20;1.20;;;;;;;;;;4953080;28;20417;-54
2022/11/12 07:23:38;;;;;;;1.50;1.50;;;;;;;;;;4955959;28;20433;-53
2022/11/12 07:26:05;;;;;;;1.20;1.20;;;;;;;;;;4960916;28;20412;-54
2022/11/12 07:28:31;;;;;;;1.35;1.35;;;;;;;;;;4959245;28;20820;-53
2022/11/12 07:30:57;;;;;;;1.50;1.50;;;;;;;;;;4939814;28;20412;-53
2022/11/12 07:33:23;;;;;;;1.50;1.50;;;;;;;;;;4946670;28;20755;-53
2022/11/12 07:35:49;;;;;;;1.50;1.50;;;;;;;;;;4929358;28;20465;-54
2022/11/12 07:38:15;;;;;;;1.43;1.43;;;;;;;;;;4936310;28;20433;-53
2022/11/12 07:40:40;;;;;;;1.50;1.50;;;;;;;;;;4948942;28;20924;-54
2022/11/12 07:43:06;;;;;;;1.40;1.40;;;;;;;;;;4941257;28;20431;-53
2022/11/12 07:45:32;;;;;;;1.60;1.60;;;;;;;;;;4946479;28;20426;-53
2022/11/12 07:47:58;;;;;;;1.40;1.40;;;;;;;;;;4940824;28;20429;-54
2022/11/12 07:50:24;;;;;;;1.42;1.42;;;;;;;;;;4940447;28;20431;-53
2022/11/12 07:52:50;;;;;;;1.58;1.58;;;;;;;;;;4943479;28;20457;-53
2022/11/12 07:55:16;;;;;;;1.40;1.40;;;;;;;;;;4957534;28;20434;-53
2022/11/12 07:57:42;;;;;;;1.40;1.40;;;;;;;;;;4948248;28;20429;-53
2022/11/12 08:00:11;;;;;;;1.40;1.40;;;;;;;;;;4966770;28;20998;-53
2022/11/12 08:02:36;;;;;;;1.50;1.50;;;;;;;;;;4956496;28;20433;-53
2022/11/12 08:05:02;;;;;;;1.50;1.50;;;;;;;;;;4947696;28;20459;-53
2022/11/12 08:07:28;;;;;;;1.40;1.40;;;;;;;;;;4946156;28;20825;-53
2022/11/12 08:09:54;;;;;;;1.40;1.40;;;;;;;;;;4951764;28;20444;-54
2022/11/12 08:12:20;;;;;;;1.48;1.48;;;;;;;;;;4959221;28;20913;-53
2022/11/12 08:14:46;;;;;;;1.40;1.40;;;;;;;;;;4970459;28;20513;-54
2022/11/12 08:17:12;;;;;;;1.60;1.60;;;;;;;;;;4933238;28;20420;-53
2022/11/12 08:19:38;;;;;;;1.60;1.60;;;;;;;;;;4949059;28;20467;-53
2022/11/12 08:22:04;;;;;;;1.60;1.60;;;;;;;;;;4953723;28;20451;-53
2022/11/12 08:24:30;;;;;;;1.40;1.40;;;;;;;;;;4940177;28;20455;-53
2022/11/12 08:26:56;;;;;;;1.60;1.60;;;;;;;;;;4930071;28;20863;-53
2022/11/12 08:29:22;;;;;;;1.53;1.53;;;;;;;;;;4931051;28;20416;-54
2022/11/12 08:31:48;;;;;;;1.40;1.40;;;;;;;;;;4937093;28;20435;-53
2022/11/12 08:34:14;;;;;;;1.40;1.40;;;;;;;;;;4933213;28;20959;-53
2022/11/12 08:36:40;;;;;;;1.42;1.42;;;;;;;;;;4949750;28;26167;-54
2022/11/12 08:39:06;;;;;;;1.43;1.43;;;;;;;;;;4929967;28;20827;-54
2022/11/12 08:41:32;;;;;;;1.30;1.30;;;;;;;;;;4934403;28;20561;-54
2022/11/12 08:43:58;;;;;;;1.35;1.35;;;;;;;;;;4918971;28;20513;-53
2022/11/12 08:46:24;;;;;;;1.30;1.30;;;;;;;;;;4946901;28;20517;-54
2022/11/12 08:48:50;;;;;;;1.50;1.50;;;;;;;;;;4917297;28;21117;-54
2022/11/12 08:51:16;;;;;;;1.67;1.67;;;;;;;;;;4909582;28;20452;-54
2022/11/12 08:53:42;;;;;;;1.50;1.50;;;;;;;;;;4935659;28;20471;-54
2022/11/12 08:56:08;;;;;;;1.30;1.30;;;;;;;;;;4931389;28;20924;-54
2022/11/12 08:58:34;;;;;;;1.20;1.20;;;;;;;;;;4911338;28;20903;-53
2022/11/12 09:01:03;;;;;;;1.20;1.20;;;;;;;;;;4927168;28;20420;-54
2022/11/12 09:03:29;;;;;;;1.30;1.30;;;;;;;;;;4914685;28;21005;-54
2022/11/12 09:05:55;;;;;;;1.33;1.33;;;;;;;;;;4958704;28;20789;-54
2022/11/12 09:08:22;;;;;;;1.23;1.23;;;;;;;;;;4939021;28;20425;-54
2022/11/12 09:10:48;;;;;;;1.10;1.10;;;;;;;;;;4935549;28;21923;-54
2022/11/12 09:13:16;;;;;;;1.30;1.30;;;;;;;;;;4949320;28;20422;-54
2022/11/12 09:15:42;;;;;;;1.30;1.30;;;;;;;;;;4915001;28;20994;-54
2022/11/12 09:18:10;;;;;;;1.60;1.60;;;;;;;;;;4927456;28;20427;-54
2022/11/12 09:20:36;;;;;;;1.40;1.40;;;;;;;;;;4930923;28;20419;-54
2022/11/12 09:23:03;;;;;;;1.30;1.30;;;;;;;;;;4953876;28;20432;-54
2022/11/12 09:25:29;;;;;;;0.83;0.83;;;;;;;;;;4953334;28;21006;-54
2022/11/12 09:27:55;;;;;;;1.07;1.07;;;;;;;;;;4936277;28;20506;-54
2022/11/12 09:30:21;;;;;;;1.40;1.40;;;;;;;;;;4915504;28;20439;-54
2022/11/12 09:32:47;;;;;;;1.30;1.30;;;;;;;;;;4935230;28;20444;-55
2022/11/12 09:35:13;;;;;;;1.10;1.10;;;;;;;;;;4907958;28;21195;-54
2022/11/12 09:37:39;;;;;;;1.20;1.20;;;;;;;;;;4933543;28;20438;-54
2022/11/12 09:40:06;;;;;;;1.10;1.10;;;;;;;;;;4928816;28;22670;-54
2022/11/12 09:42:33;;;;;;;1.00;1.00;;;;;;;;;;4946602;28;20428;-54
2022/11/12 09:45:00;;;;;;;1.40;1.40;;;;;;;;;;4919869;28;20408;-54
2022/11/12 09:47:29;;;;;;;0.90;0.90;;;;;;;;;;4921609;28;20425;-54
2022/11/12 09:50:12;;;;;;;0.80;0.80;;;;;;;;;;4916044;28;20463;-54
2022/11/12 09:52:38;;;;;;;0.90;0.90;;;;;;;;;;4925137;28;20482;-54
2022/11/12 09:55:12;;;;;;;0.75;0.75;;;;;;;;;;4898849;28;20432;-54
2022/11/12 09:57:38;;;;;;;0.80;0.80;;;;;;;;;;4937401;28;20428;-55
2022/11/12 10:00:14;;;;;;;1.00;1.00;;;;;;;;;;4924917;28;20429;-54
2022/11/12 10:02:47;;;;;;;1.30;1.30;;;;;;;;;;4939676;28;20440;-54
2022/11/12 10:05:30;;;;;;;1.50;1.50;;;;;;;;;;4934013;28;20836;-54
2022/11/12 10:08:05;;;;;;;1.42;1.42;;;;;;;;;;4932455;28;20435;-54
2022/11/12 10:10:37;;;;;;;1.20;1.20;;;;;;;;;;4896928;28;21281;-54
2022/11/12 10:13:03;;;;;;;1.30;1.30;;;;;;;;;;4943756;28;20418;-54
2022/11/12 10:18:15;;;;;;;0.80;0.80;;;;;;;;;;4929526;28;20419;-54
2022/11/12 10:20:43;;;;;;;0.60;0.60;;;;;;;;;;4934463;28;20542;-54
2022/11/12 10:23:09;;;;;;;0.60;0.60;;;;;;;;;;4921754;28;20416;-54
2022/11/12 10:25:35;;;;;;;0.70;0.70;;;;;;;;;;4931986;28;20532;-54
2022/11/12 10:28:01;;;;;;;0.60;0.60;;;;;;;;;;4920935;28;20433;-54
2022/11/12 10:30:27;;;;;;;1.42;1.42;;;;;;;;;;4928172;28;20420;-54
2022/11/12 10:32:53;;;;;;;1.00;1.00;;;;;;;;;;4954221;28;20461;-54
2022/11/12 10:35:20;;;;;;;1.30;1.30;;;;;;;;;;4943946;28;20431;-54
2022/11/12 10:37:47;;;;;;;1.20;1.20;;;;;;;;;;4948085;28;20514;-54
2022/11/12 10:40:25;;;;;;;1.20;1.20;;;;;;;;;;4928946;28;21233;-54
2022/11/12 10:42:58;;;;;;;1.23;1.23;;;;;;;;;;4945957;28;20466;-54
2022/11/12 10:45:24;;;;;;;1.20;1.20;;;;;;;;;;4949396;28;22358;-54
2022/11/12 10:47:50;;;;;;;1.30;1.30;;;;;;;;;;4932058;28;20540;-54
2022/11/12 10:50:34;;;;;;;0.85;0.85;;;;;;;;;;4930847;28;20429;-54
2022/11/12 10:53:04;;;;;;;0.63;0.63;;;;;;;;;;4958790;28;20786;-54
2022/11/12 10:55:31;;;;;;;0.95;0.95;;;;;;;;;;4932251;28;20503;-54
2022/11/12 10:58:03;;;;;;;1.00;1.00;;;;;;;;;;4931456;28;20785;-54
2022/11/12 11:00:29;;;;;;;0.97;0.97;;;;;;;;;;4938160;28;20442;-55
2022/11/12 11:02:54;;;;;;;0.90;0.90;;;;;;;;;;4954115;28;20426;-54
2022/11/12 11:05:27;;;;;;;0.90;0.90;;;;;;;;;;4941354;28;20433;-54
2022/11/12 11:07:52;;;;;;;1.00;1.00;;;;;;;;;;4965924;28;20426;-54
2022/11/12 11:10:22;;;;;;;0.90;0.90;;;;;;;;;;4953149;28;20770;-54
2022/11/12 11:12:48;;;;;;;0.70;0.70;;;;;;;;;;4942132;28;20440;-54
2022/11/12 11:15:23;;;;;;;0.90;0.90;;;;;;;;;;4916195;28;20508;-54
2022/11/12 11:17:49;;;;;;;1.02;1.02;;;;;;;;;;4954233;28;21308;-54
2022/11/12 11:20:23;;;;;;;1.30;1.30;;;;;;;;;;4960177;28;20500;-55
2022/11/12 11:23:12;;;;;;;1.60;1.60;;;;;;;;;;4951696;28;20425;-54
2022/11/12 11:25:38;;;;;;;1.50;1.50;;;;;;;;;;4937454;28;20424;-54
2022/11/12 11:28:04;;;;;;;1.50;1.50;;;;;;;;;;4907188;28;20493;-54
2022/11/12 11:30:31;;;;;;;1.65;1.65;;;;;;;;;;4918877;28;20908;-54
2022/11/12 11:33:16;;;;;;;1.70;1.70;;;;;;;;;;4944369;28;20947;-54
2022/11/12 11:35:53;;;;;;;1.50;1.50;;;;;;;;;;4941599;28;20458;-54
2022/11/12 11:38:34;;;;;;;1.60;1.60;;;;;;;;;;5000632;28;20426;-54
2022/11/12 11:41:19;;;;;;;1.63;1.63;;;;;;;;;;4954798;28;20935;-53
2022/11/12 11:43:51;;;;;;;1.50;1.50;;;;;;;;;;4961270;28;20850;-53
2022/11/12 11:46:31;;;;;;;1.40;1.40;;;;;;;;;;4952399;28;20978;-54
2022/11/12 11:49:16;;;;;;;1.50;1.50;;;;;;;;;;4983588;28;20512;-53
2022/11/12 11:52:00;;;;;;;1.50;1.50;;;;;;;;;;4978668;28;20463;-54
2022/11/12 11:54:45;;;;;;;1.50;1.50;;;;;;;;;;4986821;28;20917;-54
2022/11/12 11:57:12;;;;;;;1.50;1.50;;;;;;;;;;4937493;28;20592;-53
2022/11/12 11:59:54;;;;;;;1.40;1.40;;;;;;;;;;4988481;28;20785;-53
2022/11/12 12:02:33;;;;;;;1.42;1.42;;;;;;;;;;4971320;28;20433;-52
2022/11/12 12:04:59;;;;;;;1.50;1.50;;;;;;;;;;4977305;28;20512;-53
2022/11/12 12:07:25;;;;;;;1.60;1.60;;;;;;;;;;4973374;28;20427;-52
2022/11/12 12:09:54;;;;;;;1.50;1.50;;;;;;;;;;4980049;28;20453;-53
2022/11/12 12:12:25;;;;;;;1.55;1.55;;;;;;;;;;4958322;28;20418;-53
2022/11/12 12:14:54;;;;;;;1.60;1.60;;;;;;;;;;4969426;28;20578;-53
2022/11/12 12:17:39;;;;;;;1.50;1.50;;;;;;;;;;4967409;28;20437;-52
2022/11/12 12:20:29;;;;;;;1.60;1.60;;;;;;;;;;4958940;28;20430;-52
2022/11/12 12:23:05;;;;;;;1.70;1.70;;;;;;;;;;4965356;28;20512;-52
2022/11/12 12:25:32;;;;;;;1.80;1.70;;;;;;;;;;4980213;28;20984;-53
2022/11/12 12:28:05;;;;;;;1.88;1.77;;;;;;;;;;4936297;28;20447;-52
2022/11/12 12:30:31;;;;;;;1.80;1.70;;;;;;;;;;4940795;28;22491;-53
2022/11/12 12:32:59;;;;;;;1.90;1.80;;;;;;;;;;4957781;28;20467;-53
2022/11/12 12:35:30;;;;;;;2.00;1.90;;;;;;;;;;4927565;28;20426;-54
2022/11/12 12:37:59;;;;;;;1.60;1.60;;;;;;;;;;4934285;28;20949;-55
2022/11/12 12:40:26;;;;;;;1.80;1.70;;;;;;;;;;4936406;28;20419;-54
2022/11/12 12:42:56;;;;;;;1.60;1.60;;;;;;;;;;4934136;28;20506;-54
2022/11/12 12:45:40;;;;;;;1.50;1.50;;;;;;;;;;4922826;28;20916;-53
2022/11/12 12:48:07;;;;;;;1.50;1.50;;;;;;;;;;4937282;28;21060;-53
2022/11/12 12:50:33;;;;;;;1.50;1.50;;;;;;;;;;4938587;28;20435;-53
2022/11/12 12:53:03;;;;;;;1.50;1.50;;;;;;;;;;4963402;28;20420;-52
2022/11/12 12:55:36;;;;;;;1.50;1.50;;;;;;;;;;4938277;28;20998;-53
2022/11/12 12:58:02;;;;;;;1.70;1.70;;;;;;;;;;4975167;28;20438;-52
2022/11/12 13:00:32;;;;;;;1.57;1.57;;;;;;;;;;4966693;28;20845;-53
2022/11/12 13:02:58;;;;;;;1.77;1.70;;;;;;;;;;4979338;28;20836;-53
2022/11/12 13:05:25;;;;;;;1.60;1.60;;;;;;;;;;4980684;28;20744;-54
2022/11/12 13:07:51;;;;;;;1.55;1.55;;;;;;;;;;4971691;28;20432;-55
2022/11/12 13:10:35;;;;;;;1.40;1.40;;;;;;;;;;4950705;28;20749;-54
2022/11/12 13:13:07;;;;;;;1.50;1.50;;;;;;;;;;4947000;28;20430;-55
2022/11/12 13:15:40;;;;;;;1.60;1.60;;;;;;;;;;4934903;28;20425;-54
2022/11/12 13:18:08;;;;;;;1.50;1.50;;;;;;;;;;4959517;28;20440;-54
2022/11/12 13:20:35;;;;;;;1.50;1.50;;;;;;;;;;4968605;28;20420;-54
2022/11/12 13:23:01;;;;;;;1.40;1.40;;;;;;;;;;4973449;28;20770;-54
2022/11/12 13:25:28;;;;;;;1.40;1.40;;;;;;;;;;4994773;28;20414;-54
2022/11/12 13:27:54;;;;;;;1.40;1.40;;;;;;;;;;4978843;28;20480;-54
2022/11/12 13:30:20;;;;;;;1.37;1.37;;;;;;;;;;4963955;28;21369;-54
2022/11/12 13:32:45;;;;;;;1.40;1.40;;;;;;;;;;4975879;28;20580;-54
2022/11/12 13:35:20;;;;;;;1.60;1.60;;;;;;;;;;4982442;28;20426;-54
2022/11/12 13:37:50;;;;;;;1.52;1.52;;;;;;;;;;4976137;28;20841;-55
2022/11/12 13:40:17;;;;;;;1.60;1.60;;;;;;;;;;4976131;28;20824;-54
2022/11/12 13:42:49;;;;;;;1.70;1.70;;;;;;;;;;4970666;28;20425;-54
2022/11/12 13:45:16;;;;;;;1.52;1.52;;;;;;;;;;4950252;28;20901;-54
2022/11/12 13:47:42;;;;;;;2.00;1.90;;;;;;;;;;4956847;28;20418;-54
2022/11/12 13:50:08;;;;;;;1.60;1.60;;;;;;;;;;4975211;28;20566;-54
2022/11/12 13:52:34;;;;;;;1.90;1.80;;;;;;;;;;4978192;28;20515;-54
2022/11/12 13:55:01;;;;;;;1.80;1.70;;;;;;;;;;4981327;28;20437;-52
2022/11/12 13:57:27;;;;;;;1.80;1.70;;;;;;;;;;4961560;28;20440;-55
2022/11/12 14:00:12;;;;;;;1.60;1.60;;;;;;;;;;4928137;28;20883;-55
2022/11/12 14:02:38;;;;;;;2.30;2.20;;;;;;;;;;4974017;28;20422;-54
2022/11/12 14:05:10;;;;;;;2.20;2.10;;;;;;;;;;4972747;28;20788;-54
2022/11/12 14:07:40;;;;;;;2.00;1.90;;;;;;;;;;4975421;28;20854;-54
2022/11/12 14:10:23;;;;;;;2.00;1.90;;;;;;;;;;4971991;28;20427;-55
2022/11/12 14:12:54;;;;;;;2.00;1.90;;;;;;;;;;4975346;28;20437;-54
2022/11/12 14:15:38;;;;;;;2.20;2.10;;;;;;;;;;4949103;28;20416;-55
2022/11/12 14:18:04;;;;;;;1.90;1.80;;;;;;;;;;4944955;28;20920;-55
2022/11/12 14:20:40;;;;;;;2.03;1.92;;;;;;;;;;4983661;28;20427;-55
2022/11/12 14:23:16;;;;;;;1.95;1.85;;;;;;;;;;4961467;28;20458;-55
2022/11/12 14:26:00;;;;;;;2.22;2.13;;;;;;;;;;4982935;28;20901;-55
2022/11/12 14:28:27;;;;;;;1.90;1.80;;;;;;;;;;4959523;28;20455;-55
2022/11/12 14:30:53;;;;;;;1.60;1.60;;;;;;;;;;4957451;28;20422;-55
2022/11/12 14:33:20;;;;;;;2.00;1.90;;;;;;;;;;4964911;28;20411;-54
2022/11/12 14:35:46;;;;;;;2.03;1.92;;;;;;;;;;4967611;28;20438;-55
2022/11/12 14:38:13;;;;;;;2.00;1.90;;;;;;;;;;4968163;28;20445;-54
2022/11/12 14:40:48;;;;;;;1.90;1.80;;;;;;;;;;4935520;28;20474;-55
2022/11/12 14:43:30;;;;;;;2.00;1.90;;;;;;;;;;4956438;28;20436;-54
2022/11/12 14:45:56;;;;;;;1.90;1.80;;;;;;;;;;4974404;28;20973;-55
2022/11/12 14:48:22;;;;;;;2.10;2.00;;;;;;;;;;4967415;28;20422;-54
2022/11/12 14:50:48;;;;;;;1.90;1.80;;;;;;;;;;4977589;28;20484;-54
2022/11/12 14:53:19;;;;;;;2.10;2.00;;;;;;;;;;4964458;28;20426;-55
2022/11/12 14:55:47;;;;;;;2.00;1.90;;;;;;;;;;4961644;28;20513;-55
2022/11/12 14:58:13;;;;;;;2.00;1.90;;;;;;;;;;4962274;28;21039;-54
2022/11/12 15:00:43;;;;;;;1.90;1.80;;;;;;;;;;4959698;28;20545;-55
2022/11/12 15:03:11;;;;;;;2.10;2.00;;;;;;;;;;4942697;28;20893;-54
2022/11/12 15:05:51;;;;;;;1.85;1.75;;;;;;;;;;4954129;28;20455;-54
2022/11/12 15:08:26;;;;;;;1.40;1.40;;;;;;;;;;4958879;28;20419;-54
2022/11/12 15:10:52;;;;;;;1.40;1.40;;;;;;;;;;4951661;28;20630;-53
2022/11/12 15:13:19;;;;;;;1.55;1.55;;;;;;;;;;4978429;28;20768;-54
2022/11/12 15:15:55;;;;;;;1.48;1.48;;;;;;;;;;4973799;28;20754;-53
2022/11/12 15:18:22;;;;;;;1.50;1.50;;;;;;;;;;4982142;28;20432;-54